createdAt,value
2017-06-18T00:00:08.897Z,0
2017-06-18T00:00:49.358Z,0
2017-06-18T00:01:29.830Z,0
2017-06-18T00:02:10.289Z,0
2017-06-18T00:02:50.744Z,0
2017-06-18T00:03:31.202Z,0
2017-06-18T00:04:11.660Z,0
2017-06-18T00:04:52.120Z,0
2017-06-18T00:05:32.576Z,0
2017-06-18T00:06:13.025Z,0
2017-06-18T00:06:53.471Z,0
2017-06-18T00:07:33.931Z,0
2017-06-18T00:08:14.387Z,0
2017-06-18T00:08:54.845Z,0
2017-06-18T00:09:35.306Z,0
2017-06-18T00:10:15.766Z,0
2017-06-18T00:10:56.222Z,0
2017-06-18T00:11:36.683Z,0
2017-06-18T00:12:17.140Z,0
2017-06-18T00:12:57.599Z,0
2017-06-18T00:13:38.050Z,0
2017-06-18T00:14:18.516Z,0
2017-06-18T00:14:58.972Z,0
2017-06-18T00:15:39.429Z,0
2017-06-18T00:16:19.892Z,0
2017-06-18T00:17:00.348Z,0
2017-06-18T00:17:40.804Z,0
2017-06-18T00:18:21.261Z,0
2017-06-18T00:19:01.724Z,0
2017-06-18T00:19:42.182Z,0
2017-06-18T00:20:22.653Z,0
2017-06-18T00:21:03.095Z,0
2017-06-18T00:21:43.542Z,0
2017-06-18T00:22:24.005Z,0
2017-06-18T00:23:04.462Z,0
2017-06-18T00:23:44.923Z,0
2017-06-18T00:24:25.384Z,0
2017-06-18T00:25:05.841Z,0
2017-06-18T00:25:46.295Z,0
2017-06-18T00:26:26.747Z,0
2017-06-18T00:27:07.203Z,0
2017-06-18T00:27:47.663Z,0
2017-06-18T00:28:28.120Z,0
2017-06-18T00:29:08.583Z,0
2017-06-18T00:29:49.030Z,0
2017-06-18T00:30:29.486Z,0
2017-06-18T00:31:09.945Z,0
2017-06-18T00:31:50.403Z,0
2017-06-18T00:32:30.864Z,0
2017-06-18T00:33:11.313Z,0
2017-06-18T00:33:51.777Z,0
2017-06-18T00:34:32.235Z,0
2017-06-18T00:35:12.692Z,0
2017-06-18T00:35:53.180Z,0
2017-06-18T00:36:33.631Z,0
2017-06-18T00:37:14.079Z,0
2017-06-18T00:37:54.534Z,0
2017-06-18T00:38:34.993Z,0
2017-06-18T00:39:15.448Z,0
2017-06-18T00:39:55.909Z,0
2017-06-18T00:40:36.390Z,0
2017-06-18T00:41:16.857Z,0
2017-06-18T00:41:57.306Z,0
2017-06-18T00:42:37.765Z,0
2017-06-18T00:43:18.224Z,0
2017-06-18T00:43:58.680Z,0
2017-06-18T00:44:39.128Z,0
2017-06-18T00:45:19.576Z,0
2017-06-18T00:46:00.034Z,0
2017-06-18T00:46:40.480Z,0
2017-06-18T00:47:20.928Z,0
2017-06-18T00:48:01.379Z,0
2017-06-18T00:48:41.835Z,0
2017-06-18T00:49:22.297Z,0
2017-06-18T00:50:02.765Z,0
2017-06-18T00:50:43.237Z,0
2017-06-18T00:51:23.690Z,0
2017-06-18T00:52:04.148Z,0
2017-06-18T00:52:44.608Z,0
2017-06-18T00:53:25.042Z,0
2017-06-18T00:54:05.506Z,0
2017-06-18T00:54:45.964Z,0
2017-06-18T00:55:26.426Z,0
2017-06-18T00:56:06.877Z,0
2017-06-18T00:56:47.339Z,0
2017-06-18T00:57:27.796Z,0
2017-06-18T00:58:08.258Z,0
2017-06-18T00:58:48.714Z,0
2017-06-18T00:59:29.172Z,0
2017-06-18T01:00:09.637Z,0
2017-06-18T01:00:50.086Z,0
2017-06-18T01:01:30.539Z,0
2017-06-18T01:02:10.996Z,0
2017-06-18T01:02:51.458Z,0
2017-06-18T01:03:31.919Z,0
2017-06-18T01:04:12.374Z,0
2017-06-18T01:04:52.834Z,0
2017-06-18T01:05:33.286Z,0
2017-06-18T01:06:13.753Z,0
2017-06-18T01:06:54.212Z,0
2017-06-18T01:07:34.671Z,0
2017-06-18T01:08:15.142Z,0
2017-06-18T01:08:55.585Z,0
2017-06-18T01:09:36.036Z,0
2017-06-18T01:10:16.497Z,0
2017-06-18T01:10:56.957Z,0
2017-06-18T01:11:37.418Z,0
2017-06-18T01:12:17.875Z,0
2017-06-18T01:12:58.335Z,0
2017-06-18T01:13:38.824Z,0
2017-06-18T01:14:19.257Z,0
2017-06-18T01:14:59.724Z,0
2017-06-18T01:15:40.177Z,0
2017-06-18T01:16:20.640Z,0
2017-06-18T01:17:01.100Z,0
2017-06-18T01:17:41.559Z,0
2017-06-18T01:18:22.022Z,0
2017-06-18T01:19:02.487Z,0
2017-06-18T01:19:42.944Z,0
2017-06-18T01:20:23.403Z,0
2017-06-18T01:21:03.871Z,0
2017-06-18T01:21:44.320Z,0
2017-06-18T01:22:24.778Z,0
2017-06-18T01:23:05.235Z,0
2017-06-18T01:23:45.690Z,0
2017-06-18T01:24:26.148Z,0
2017-06-18T01:25:06.610Z,0
2017-06-18T01:25:47.062Z,0
2017-06-18T01:26:27.520Z,0
2017-06-18T01:27:07.976Z,0
2017-06-18T01:27:48.438Z,0
2017-06-18T01:28:28.894Z,0
2017-06-18T01:29:09.349Z,0
2017-06-18T01:29:49.808Z,0
2017-06-18T01:30:30.266Z,0
2017-06-18T01:31:10.724Z,0
2017-06-18T01:31:51.165Z,0
2017-06-18T01:32:31.615Z,0
2017-06-18T01:33:12.072Z,0
2017-06-18T01:33:52.532Z,0
2017-06-18T01:34:33.000Z,0
2017-06-18T01:35:13.436Z,0
2017-06-18T01:35:53.896Z,0
2017-06-18T01:36:34.355Z,0
2017-06-18T01:37:14.808Z,0
2017-06-18T01:37:55.265Z,0
2017-06-18T01:38:35.726Z,0
2017-06-18T01:39:16.247Z,0
2017-06-18T01:39:56.691Z,0
2017-06-18T01:40:37.164Z,0
2017-06-18T01:41:17.622Z,0
2017-06-18T01:41:58.087Z,0
2017-06-18T01:42:38.518Z,0
2017-06-18T01:43:18.975Z,0
2017-06-18T01:43:59.436Z,0
2017-06-18T01:44:39.885Z,0
2017-06-18T01:45:20.347Z,0
2017-06-18T01:46:00.811Z,0
2017-06-18T01:46:41.281Z,0
2017-06-18T01:47:21.757Z,0
2017-06-18T01:48:02.199Z,0
2017-06-18T01:48:42.648Z,0
2017-06-18T01:49:23.105Z,0
2017-06-18T01:50:03.560Z,0
2017-06-18T01:50:44.019Z,0
2017-06-18T01:51:24.474Z,0
2017-06-18T01:52:04.936Z,0
2017-06-18T01:52:45.396Z,0
2017-06-18T01:53:25.851Z,0
2017-06-18T01:54:06.310Z,0
2017-06-18T01:54:46.770Z,0
2017-06-18T01:55:27.225Z,0
2017-06-18T01:56:07.677Z,0
2017-06-18T01:56:48.135Z,0
2017-06-18T01:57:28.595Z,0
2017-06-18T01:58:09.053Z,0
2017-06-18T01:58:49.512Z,0
2017-06-18T01:59:29.978Z,0
2017-06-18T02:00:10.436Z,0
2017-06-18T02:00:50.903Z,0
2017-06-18T02:01:31.366Z,0
2017-06-18T02:02:11.824Z,0
2017-06-18T02:02:52.285Z,0
2017-06-18T02:03:32.732Z,0
2017-06-18T02:04:13.193Z,0
2017-06-18T02:04:53.651Z,0
2017-06-18T02:05:34.113Z,0
2017-06-18T02:06:14.572Z,0
2017-06-18T02:06:55.025Z,0
2017-06-18T02:07:35.467Z,0
2017-06-18T02:08:15.929Z,0
2017-06-18T02:08:56.390Z,0
2017-06-18T02:09:36.842Z,0
2017-06-18T02:10:17.302Z,0
2017-06-18T02:10:57.752Z,0
2017-06-18T02:11:38.215Z,0
2017-06-18T02:12:18.677Z,0
2017-06-18T02:12:59.133Z,0
2017-06-18T02:13:39.593Z,0
2017-06-18T02:14:20.041Z,0
2017-06-18T02:15:00.502Z,0
2017-06-18T02:15:40.945Z,0
2017-06-18T02:16:21.401Z,0
2017-06-18T02:17:01.853Z,0
2017-06-18T02:17:42.333Z,0
2017-06-18T02:18:22.792Z,0
2017-06-18T02:19:03.240Z,0
2017-06-18T02:19:43.709Z,0
2017-06-18T02:20:24.167Z,0
2017-06-18T02:21:04.636Z,0
2017-06-18T02:21:45.087Z,0
2017-06-18T02:22:25.564Z,0
2017-06-18T02:23:06.024Z,0
2017-06-18T02:23:46.479Z,0
2017-06-18T02:24:26.935Z,0
2017-06-18T02:25:07.395Z,0
2017-06-18T02:25:47.853Z,0
2017-06-18T02:26:28.307Z,0
2017-06-18T02:27:08.772Z,0
2017-06-18T02:27:49.225Z,0
2017-06-18T02:28:29.679Z,0
2017-06-18T02:29:10.141Z,0
2017-06-18T02:29:50.601Z,0
2017-06-18T02:30:31.066Z,0
2017-06-18T02:31:11.521Z,0
2017-06-18T02:31:51.979Z,0
2017-06-18T02:32:32.475Z,0
2017-06-18T02:33:12.922Z,0
2017-06-18T02:33:53.402Z,0
2017-06-18T02:34:33.853Z,0
2017-06-18T02:35:14.315Z,0
2017-06-18T02:35:54.784Z,0
2017-06-18T02:36:35.251Z,0
2017-06-18T02:37:15.714Z,0
2017-06-18T02:37:56.175Z,0
2017-06-18T02:38:36.632Z,0
2017-06-18T02:39:17.099Z,0
2017-06-18T02:39:57.542Z,0
2017-06-18T02:40:38.007Z,0
2017-06-18T02:41:18.465Z,0
2017-06-18T02:41:58.951Z,0
2017-06-18T02:42:39.406Z,0
2017-06-18T02:43:19.872Z,0
2017-06-18T02:44:00.326Z,0
2017-06-18T02:44:40.789Z,0
2017-06-18T02:45:21.270Z,0
2017-06-18T02:46:01.732Z,0
2017-06-18T02:46:42.190Z,0
2017-06-18T02:47:22.648Z,0
2017-06-18T02:48:03.109Z,0
2017-06-18T02:48:43.566Z,0
2017-06-18T02:49:24.024Z,0
2017-06-18T02:50:04.483Z,0
2017-06-18T02:50:44.941Z,0
2017-06-18T02:51:25.413Z,0
2017-06-18T02:52:05.872Z,0
2017-06-18T02:52:46.329Z,0
2017-06-18T02:53:26.785Z,0
2017-06-18T02:54:07.244Z,0
2017-06-18T02:54:47.696Z,0
2017-06-18T02:55:28.163Z,0
2017-06-18T02:56:08.620Z,0
2017-06-18T02:56:49.080Z,0
2017-06-18T02:57:29.546Z,0
2017-06-18T02:58:10.008Z,0
2017-06-18T02:58:50.468Z,0
2017-06-18T02:59:30.931Z,0
2017-06-18T03:00:11.394Z,0
2017-06-18T03:00:51.851Z,0
2017-06-18T03:01:32.312Z,0
2017-06-18T03:02:12.767Z,0
2017-06-18T03:02:53.233Z,0
2017-06-18T03:03:33.685Z,0
2017-06-18T03:04:14.145Z,0
2017-06-18T03:04:54.601Z,0
2017-06-18T03:05:35.055Z,0
2017-06-18T03:06:15.519Z,0
2017-06-18T03:06:55.981Z,0
2017-06-18T03:07:36.438Z,0
2017-06-18T03:08:16.887Z,0
2017-06-18T03:08:57.372Z,0
2017-06-18T03:09:37.802Z,0
2017-06-18T03:10:18.272Z,0
2017-06-18T03:10:58.718Z,0
2017-06-18T03:11:39.171Z,0
2017-06-18T03:12:19.628Z,0
2017-06-18T03:13:00.088Z,0
2017-06-18T03:13:40.573Z,0
2017-06-18T03:14:21.026Z,0
2017-06-18T03:15:01.481Z,0
2017-06-18T03:15:41.945Z,0
2017-06-18T03:16:22.403Z,0
2017-06-18T03:17:02.857Z,0
2017-06-18T03:17:43.317Z,0
2017-06-18T03:18:23.777Z,0
2017-06-18T03:19:04.233Z,0
2017-06-18T03:19:44.703Z,0
2017-06-18T03:20:25.158Z,0
2017-06-18T03:21:05.613Z,0
2017-06-18T03:21:46.080Z,0
2017-06-18T03:22:26.544Z,0
2017-06-18T03:23:07.005Z,0
2017-06-18T03:23:47.461Z,0
2017-06-18T03:24:27.933Z,0
2017-06-18T03:25:08.391Z,0
2017-06-18T03:25:48.853Z,0
2017-06-18T03:26:29.310Z,0
2017-06-18T03:27:09.775Z,0
2017-06-18T03:27:50.229Z,0
2017-06-18T03:28:30.688Z,0
2017-06-18T03:29:11.151Z,0
2017-06-18T03:29:51.609Z,0
2017-06-18T03:30:32.148Z,0
2017-06-18T03:31:12.608Z,0
2017-06-18T03:31:53.065Z,0
2017-06-18T03:32:33.526Z,0
2017-06-18T03:33:13.985Z,0
2017-06-18T03:33:54.443Z,0
2017-06-18T03:34:34.900Z,0
2017-06-18T03:35:15.390Z,0
2017-06-18T03:35:55.822Z,0
2017-06-18T03:36:36.279Z,0
2017-06-18T03:37:16.737Z,0
2017-06-18T03:37:57.195Z,0
2017-06-18T03:38:37.655Z,0
2017-06-18T03:39:18.114Z,0
2017-06-18T03:39:58.570Z,0
2017-06-18T03:40:39.022Z,0
2017-06-18T03:41:19.478Z,0
2017-06-18T03:41:59.938Z,0
2017-06-18T03:42:40.407Z,0
2017-06-18T03:43:20.872Z,0
2017-06-18T03:44:01.329Z,0
2017-06-18T03:44:41.793Z,0
2017-06-18T03:45:22.255Z,0
2017-06-18T03:46:02.719Z,0
2017-06-18T03:46:43.179Z,0
2017-06-18T03:47:23.636Z,0
2017-06-18T03:48:04.098Z,0
2017-06-18T03:48:44.550Z,0
2017-06-18T03:49:25.013Z,0
2017-06-18T03:50:05.470Z,0
2017-06-18T03:50:45.930Z,0
2017-06-18T03:51:26.392Z,0
2017-06-18T03:52:06.859Z,0
2017-06-18T03:52:47.322Z,0
2017-06-18T03:53:27.778Z,0
2017-06-18T03:54:08.241Z,0
2017-06-18T03:54:48.690Z,0
2017-06-18T03:55:29.145Z,0
2017-06-18T03:56:09.607Z,0
2017-06-18T03:56:50.068Z,0
2017-06-18T03:57:30.519Z,0
2017-06-18T03:58:10.983Z,0
2017-06-18T03:58:51.443Z,0
2017-06-18T03:59:31.901Z,0
2017-06-18T04:00:12.351Z,0
2017-06-18T04:00:52.813Z,0
2017-06-18T04:01:33.272Z,0
2017-06-18T04:02:13.730Z,0
2017-06-18T04:02:54.188Z,0
2017-06-18T04:03:34.650Z,0
2017-06-18T04:04:15.110Z,0
2017-06-18T04:04:55.565Z,0
2017-06-18T04:05:36.006Z,0
2017-06-18T04:06:16.453Z,0
2017-06-18T04:06:56.907Z,0
2017-06-18T04:07:37.364Z,0
2017-06-18T04:08:17.823Z,0
2017-06-18T04:08:58.284Z,0
2017-06-18T04:09:38.765Z,0
2017-06-18T04:10:19.209Z,0
2017-06-18T04:10:59.674Z,0
2017-06-18T04:11:40.138Z,0
2017-06-18T04:12:20.601Z,0
2017-06-18T04:13:01.062Z,0
2017-06-18T04:13:41.514Z,0
2017-06-18T04:14:21.974Z,0
2017-06-18T04:15:02.427Z,0
2017-06-18T04:15:42.881Z,0
2017-06-18T04:16:23.341Z,0
2017-06-18T04:17:03.787Z,0
2017-06-18T04:17:44.242Z,0
2017-06-18T04:18:24.697Z,0
2017-06-18T04:19:05.165Z,0
2017-06-18T04:19:45.627Z,0
2017-06-18T04:20:26.089Z,0
2017-06-18T04:21:06.538Z,0
2017-06-18T04:21:46.996Z,0
2017-06-18T04:22:27.456Z,0
2017-06-18T04:23:07.916Z,0
2017-06-18T04:23:48.383Z,0
2017-06-18T04:24:28.830Z,0
2017-06-18T04:25:09.290Z,0
2017-06-18T04:25:49.750Z,0
2017-06-18T04:26:30.205Z,0
2017-06-18T04:27:10.667Z,0
2017-06-18T04:27:51.122Z,0
2017-06-18T04:28:31.579Z,0
2017-06-18T04:29:12.037Z,0
2017-06-18T04:29:52.488Z,0
2017-06-18T04:30:32.935Z,0
2017-06-18T04:31:13.396Z,0
2017-06-18T04:31:53.851Z,0
2017-06-18T04:32:34.303Z,0
2017-06-18T04:33:14.761Z,0
2017-06-18T04:33:55.250Z,0
2017-06-18T04:34:35.758Z,0
2017-06-18T04:35:16.222Z,0
2017-06-18T04:35:56.675Z,0
2017-06-18T04:36:37.139Z,0
2017-06-18T04:37:17.597Z,0
2017-06-18T04:37:58.051Z,0
2017-06-18T04:38:38.507Z,0
2017-06-18T04:39:18.969Z,0
2017-06-18T04:39:59.424Z,0
2017-06-18T04:40:39.886Z,0
2017-06-18T04:41:20.344Z,0
2017-06-18T04:42:00.804Z,0
2017-06-18T04:42:41.261Z,0
2017-06-18T04:43:21.722Z,0
2017-06-18T04:44:02.184Z,0
2017-06-18T04:44:42.639Z,0
2017-06-18T04:45:23.088Z,0
2017-06-18T04:46:03.552Z,0
2017-06-18T04:46:43.993Z,0
2017-06-18T04:47:24.462Z,0
2017-06-18T04:48:04.914Z,0
2017-06-18T04:48:45.363Z,0
2017-06-18T04:49:25.824Z,0
2017-06-18T04:50:06.280Z,0
2017-06-18T04:50:46.730Z,0
2017-06-18T04:51:27.193Z,0
2017-06-18T04:52:07.658Z,0
2017-06-18T04:52:48.116Z,0
2017-06-18T04:53:28.564Z,0
2017-06-18T04:54:09.025Z,0
2017-06-18T04:54:49.493Z,0
2017-06-18T04:55:29.943Z,0
2017-06-18T04:56:10.408Z,0
2017-06-18T04:56:50.865Z,0
2017-06-18T04:57:31.312Z,0
2017-06-18T04:58:11.776Z,0
2017-06-18T04:58:52.247Z,0
2017-06-18T04:59:32.703Z,0
2017-06-18T05:00:13.161Z,0
2017-06-18T05:00:53.614Z,5
2017-06-18T05:01:34.073Z,5
2017-06-18T05:02:14.531Z,5
2017-06-18T05:02:54.997Z,5
2017-06-18T05:03:35.446Z,5
2017-06-18T05:04:15.902Z,5
2017-06-18T05:04:56.361Z,5
2017-06-18T05:05:36.822Z,5
2017-06-18T05:06:17.283Z,5
2017-06-18T05:06:57.740Z,5
2017-06-18T05:07:38.201Z,5
2017-06-18T05:08:18.687Z,5
2017-06-18T05:08:59.143Z,5
2017-06-18T05:09:39.608Z,5
2017-06-18T05:10:20.069Z,5
2017-06-18T05:11:00.522Z,5
2017-06-18T05:11:40.988Z,5
2017-06-18T05:12:21.448Z,5
2017-06-18T05:13:01.913Z,5
2017-06-18T05:13:42.369Z,5
2017-06-18T05:14:22.833Z,5
2017-06-18T05:15:03.294Z,5
2017-06-18T05:15:43.751Z,5
2017-06-18T05:16:24.212Z,5
2017-06-18T05:17:04.673Z,5
2017-06-18T05:17:45.126Z,5
2017-06-18T05:18:25.606Z,5
2017-06-18T05:19:06.063Z,5
2017-06-18T05:19:46.515Z,5
2017-06-18T05:20:26.977Z,5
2017-06-18T05:21:07.434Z,5
2017-06-18T05:21:47.900Z,5
2017-06-18T05:22:28.358Z,5
2017-06-18T05:23:08.822Z,5
2017-06-18T05:23:49.281Z,5
2017-06-18T05:24:29.743Z,5
2017-06-18T05:25:10.201Z,5
2017-06-18T05:25:50.658Z,5
2017-06-18T05:26:31.122Z,5
2017-06-18T05:27:11.587Z,10
2017-06-18T05:27:52.048Z,10
2017-06-18T05:28:32.507Z,10
2017-06-18T05:29:12.963Z,10
2017-06-18T05:29:53.422Z,10
2017-06-18T05:30:33.884Z,10
2017-06-18T05:31:14.342Z,10
2017-06-18T05:31:54.801Z,10
2017-06-18T05:32:35.265Z,10
2017-06-18T05:33:15.726Z,10
2017-06-18T05:33:56.177Z,10
2017-06-18T05:34:36.643Z,10
2017-06-18T05:35:17.100Z,10
2017-06-18T05:35:57.559Z,10
2017-06-18T05:36:38.020Z,10
2017-06-18T05:37:18.475Z,10
2017-06-18T05:37:58.934Z,10
2017-06-18T05:38:39.391Z,10
2017-06-18T05:39:19.849Z,10
2017-06-18T05:40:00.304Z,10
2017-06-18T05:40:40.816Z,10
2017-06-18T05:41:21.275Z,10
2017-06-18T05:42:01.731Z,10
2017-06-18T05:42:42.189Z,10
2017-06-18T05:43:22.644Z,10
2017-06-18T05:44:03.101Z,10
2017-06-18T05:44:43.559Z,10
2017-06-18T05:45:24.015Z,10
2017-06-18T05:46:04.475Z,15
2017-06-18T05:46:44.937Z,15
2017-06-18T05:47:25.393Z,15
2017-06-18T05:48:05.889Z,15
2017-06-18T05:48:46.348Z,15
2017-06-18T05:49:26.806Z,15
2017-06-18T05:50:07.264Z,15
2017-06-18T05:50:47.722Z,15
2017-06-18T05:51:28.194Z,15
2017-06-18T05:52:08.660Z,15
2017-06-18T05:52:49.125Z,15
2017-06-18T05:53:29.584Z,15
2017-06-18T05:54:10.046Z,15
2017-06-18T05:54:50.505Z,15
2017-06-18T05:55:30.963Z,15
2017-06-18T05:56:11.418Z,15
2017-06-18T05:56:51.880Z,20
2017-06-18T05:57:32.334Z,20
2017-06-18T05:58:12.794Z,25
2017-06-18T05:58:53.256Z,20
2017-06-18T05:59:33.720Z,20
2017-06-18T06:00:14.193Z,20
2017-06-18T06:00:54.632Z,25
2017-06-18T06:01:35.091Z,25
2017-06-18T06:02:15.599Z,20
2017-06-18T06:02:56.084Z,20
2017-06-18T06:03:36.544Z,20
2017-06-18T06:04:17.005Z,20
2017-06-18T06:04:57.461Z,15
2017-06-18T06:05:37.919Z,15
2017-06-18T06:06:18.376Z,20
2017-06-18T06:06:58.833Z,15
2017-06-18T06:07:39.294Z,20
2017-06-18T06:08:19.753Z,20
2017-06-18T06:09:00.212Z,25
2017-06-18T06:09:40.676Z,25
2017-06-18T06:10:21.134Z,20
2017-06-18T06:11:01.596Z,20
2017-06-18T06:11:42.050Z,25
2017-06-18T06:12:22.510Z,30
2017-06-18T06:13:02.966Z,30
2017-06-18T06:13:43.433Z,30
2017-06-18T06:14:23.896Z,30
2017-06-18T06:15:04.348Z,20
2017-06-18T06:15:44.809Z,20
2017-06-18T06:16:25.257Z,15
2017-06-18T06:17:05.714Z,25
2017-06-18T06:17:46.173Z,20
2017-06-18T06:18:26.637Z,20
2017-06-18T06:19:07.105Z,20
2017-06-18T06:19:47.552Z,20
2017-06-18T06:20:28.013Z,15
2017-06-18T06:21:08.472Z,20
2017-06-18T06:21:48.924Z,20
2017-06-18T06:22:29.378Z,20
2017-06-18T06:23:09.846Z,15
2017-06-18T06:23:50.309Z,20
2017-06-18T06:24:30.767Z,20
2017-06-18T06:25:11.232Z,15
2017-06-18T06:25:51.689Z,15
2017-06-18T06:26:32.142Z,15
2017-06-18T06:27:12.602Z,15
2017-06-18T06:27:53.067Z,20
2017-06-18T06:28:33.514Z,20
2017-06-18T06:29:13.970Z,25
2017-06-18T06:29:54.442Z,25
2017-06-18T06:30:34.895Z,30
2017-06-18T06:31:15.451Z,30
2017-06-18T06:31:55.839Z,20
2017-06-18T06:32:36.300Z,20
2017-06-18T06:33:16.765Z,20
2017-06-18T06:33:57.239Z,25
2017-06-18T06:34:37.700Z,20
2017-06-18T06:35:18.180Z,30
2017-06-18T06:35:58.632Z,35
2017-06-18T06:36:39.100Z,35
2017-06-18T06:37:19.595Z,35
2017-06-18T06:38:00.068Z,35
2017-06-18T06:38:40.524Z,35
2017-06-18T06:39:20.975Z,35
2017-06-18T06:40:01.439Z,35
2017-06-18T06:40:41.902Z,40
2017-06-18T06:41:22.362Z,40
2017-06-18T06:42:02.819Z,40
2017-06-18T06:42:43.268Z,40
2017-06-18T06:43:23.729Z,35
2017-06-18T06:44:04.187Z,35
2017-06-18T06:44:44.642Z,35
2017-06-18T06:45:25.090Z,35
2017-06-18T06:46:05.538Z,35
2017-06-18T06:46:45.997Z,35
2017-06-18T06:47:26.469Z,35
2017-06-18T06:48:06.921Z,35
2017-06-18T06:48:47.386Z,35
2017-06-18T06:49:27.852Z,35
2017-06-18T06:50:08.319Z,35
2017-06-18T06:50:48.788Z,35
2017-06-18T06:51:29.248Z,20
2017-06-18T06:52:09.710Z,20
2017-06-18T06:52:50.184Z,25
2017-06-18T06:53:30.646Z,35
2017-06-18T06:54:11.102Z,25
2017-06-18T06:54:51.562Z,25
2017-06-18T06:55:32.043Z,30
2017-06-18T06:56:12.491Z,35
2017-06-18T06:56:52.952Z,20
2017-06-18T06:57:33.411Z,20
2017-06-18T06:58:13.871Z,20
2017-06-18T07:00:42.059Z,20
2017-06-18T07:01:22.515Z,20
2017-06-18T07:02:02.970Z,20
2017-06-18T07:02:43.418Z,30
2017-06-18T07:03:23.853Z,25
2017-06-18T07:04:04.302Z,20
2017-06-18T07:04:44.744Z,20
2017-06-18T07:05:25.196Z,20
2017-06-18T07:06:05.632Z,20
2017-06-18T07:06:46.116Z,20
2017-06-18T07:07:26.576Z,30
2017-06-18T07:08:07.016Z,40
2017-06-18T07:08:47.462Z,30
2017-06-18T07:09:27.921Z,40
2017-06-18T07:10:08.376Z,25
2017-06-18T07:10:48.825Z,40
2017-06-18T07:11:29.292Z,40
2017-06-18T07:12:09.743Z,45
2017-06-18T07:12:50.204Z,45
2017-06-18T07:13:30.657Z,40
2017-06-18T07:14:11.115Z,25
2017-06-18T07:14:51.599Z,25
2017-06-18T07:15:32.042Z,25
2017-06-18T07:16:12.473Z,40
2017-06-18T07:16:52.902Z,45
2017-06-18T07:17:33.354Z,45
2017-06-18T07:18:13.816Z,25
2017-06-18T07:18:54.272Z,20
2017-06-18T07:19:34.667Z,25
2017-06-18T07:20:15.067Z,40
2017-06-18T07:20:55.504Z,45
2017-06-18T07:21:35.949Z,45
2017-06-18T07:22:16.385Z,45
2017-06-18T07:22:56.842Z,45
2017-06-18T07:23:37.309Z,45
2017-06-18T07:24:17.755Z,45
2017-06-18T07:24:58.221Z,45
2017-06-18T07:25:38.672Z,45
2017-06-18T07:26:19.135Z,45
2017-06-18T07:26:59.558Z,30
2017-06-18T07:27:39.986Z,45
2017-06-18T07:28:20.412Z,30
2017-06-18T07:29:00.859Z,45
2017-06-18T07:29:41.330Z,50
2017-06-18T07:30:21.713Z,50
2017-06-18T07:31:02.161Z,30
2017-06-18T07:31:42.605Z,30
2017-06-18T07:34:10.848Z,50
2017-06-18T07:34:51.294Z,50
2017-06-18T07:35:31.746Z,50
2017-06-18T07:36:12.189Z,50
2017-06-18T07:36:52.633Z,50
2017-06-18T07:37:33.092Z,50
2017-06-18T07:38:13.540Z,50
2017-06-18T07:38:53.995Z,50
2017-06-18T07:39:34.440Z,45
2017-06-18T07:40:14.897Z,40
2017-06-18T07:40:55.337Z,50
2017-06-18T07:41:35.794Z,50
2017-06-18T07:42:16.242Z,50
2017-06-18T07:42:56.691Z,50
2017-06-18T07:43:37.136Z,50
2017-06-18T07:44:17.579Z,50
2017-06-18T07:44:58.021Z,50
2017-06-18T07:45:38.437Z,50
2017-06-18T07:46:18.882Z,50
2017-06-18T07:46:59.331Z,50
2017-06-18T07:47:39.797Z,50
2017-06-18T07:48:20.211Z,50
2017-06-18T07:49:00.688Z,55
2017-06-18T07:49:41.126Z,55
2017-06-18T07:50:21.531Z,55
2017-06-18T07:51:01.939Z,55
2017-06-18T07:51:42.401Z,55
2017-06-18T07:52:22.842Z,55
2017-06-18T07:53:03.289Z,25
2017-06-18T07:53:43.733Z,60
2017-06-18T07:55:56.747Z,25
2017-06-18T07:56:37.206Z,25
2017-06-18T07:57:17.659Z,40
2017-06-18T07:57:58.141Z,40
2017-06-18T07:58:38.536Z,60
2017-06-18T07:59:18.987Z,60
2017-06-18T07:59:59.452Z,60
2017-06-18T08:00:39.897Z,60
2017-06-18T08:01:20.310Z,60
2017-06-18T08:02:00.743Z,60
2017-06-18T08:02:41.175Z,65
2017-06-18T08:03:21.623Z,65
2017-06-18T08:04:02.260Z,65
2017-06-18T08:04:43.022Z,65
2017-06-18T08:05:23.724Z,30
2017-06-18T08:06:04.395Z,65
2017-06-18T08:06:44.985Z,30
2017-06-18T08:07:25.420Z,25
2017-06-18T08:08:05.839Z,65
2017-06-18T08:08:46.290Z,65
2017-06-18T08:09:26.866Z,30
2017-06-18T08:10:07.363Z,20
2017-06-18T08:10:47.920Z,20
2017-06-18T08:13:26.171Z,70
2017-06-18T08:14:06.578Z,75
2017-06-18T08:14:47.065Z,70
2017-06-18T08:15:27.556Z,55
2017-06-18T08:16:08.012Z,75
2017-06-18T08:16:48.405Z,75
2017-06-18T08:17:28.822Z,55
2017-06-18T08:18:09.245Z,70
2017-06-18T08:18:49.803Z,70
2017-06-18T08:19:30.388Z,70
2017-06-18T08:20:10.863Z,70
2017-06-18T08:20:51.292Z,75
2017-06-18T08:21:31.683Z,70
2017-06-18T08:22:12.179Z,75
2017-06-18T08:24:25.153Z,55
2017-06-18T08:25:05.752Z,30
2017-06-18T08:25:46.294Z,20
2017-06-18T08:26:26.757Z,70
2017-06-18T08:27:07.346Z,65
2017-06-18T08:27:47.827Z,45
2017-06-18T08:28:28.354Z,90
2017-06-18T08:29:08.768Z,90
2017-06-18T08:29:49.202Z,50
2017-06-18T08:30:29.611Z,50
2017-06-18T08:31:10.087Z,50
2017-06-18T08:31:50.517Z,95
2017-06-18T08:32:30.942Z,95
2017-06-18T08:33:11.515Z,90
2017-06-18T08:33:52.120Z,90
2017-06-18T08:36:30.491Z,60
2017-06-18T08:37:10.903Z,90
2017-06-18T08:37:51.448Z,45
2017-06-18T08:38:31.922Z,45
2017-06-18T08:39:12.347Z,95
2017-06-18T08:39:52.770Z,50
2017-06-18T08:40:33.232Z,70
2017-06-18T08:41:13.638Z,95
2017-06-18T08:41:54.061Z,45
2017-06-18T08:42:34.551Z,45
2017-06-18T08:43:15.245Z,40
2017-06-18T08:43:55.765Z,40
2017-06-18T08:44:36.276Z,40
2017-06-18T08:45:16.698Z,40
2017-06-18T08:45:57.118Z,45
2017-06-18T08:46:37.705Z,45
2017-06-18T08:47:18.195Z,45
2017-06-18T08:47:58.704Z,45
2017-06-18T08:48:39.168Z,45
2017-06-18T08:49:19.599Z,95
2017-06-18T08:50:00.183Z,95
2017-06-18T08:50:40.760Z,95
2017-06-18T08:51:21.185Z,95
2017-06-18T08:52:01.617Z,95
2017-06-18T08:52:42.127Z,100
2017-06-18T08:53:22.683Z,100
2017-06-18T08:54:03.440Z,100
2017-06-18T08:54:44.366Z,100
2017-06-18T08:55:24.998Z,100
2017-06-18T08:56:05.509Z,100
2017-06-18T08:56:46.054Z,100
2017-06-18T08:57:26.482Z,100
2017-06-18T08:58:06.997Z,100
2017-06-18T08:58:47.544Z,100
2017-06-18T08:59:28.116Z,85
2017-06-18T09:00:08.831Z,100
2017-06-18T09:00:49.305Z,90
2017-06-18T09:01:29.867Z,100
2017-06-18T09:02:10.327Z,95
2017-06-18T09:02:50.871Z,90
2017-06-18T09:03:31.327Z,100
2017-06-18T09:04:11.947Z,105
2017-06-18T09:04:52.666Z,105
2017-06-18T09:05:33.230Z,105
2017-06-18T09:06:13.687Z,105
2017-06-18T09:06:54.125Z,80
2017-06-18T09:07:34.550Z,100
2017-06-18T09:08:15.166Z,105
2017-06-18T09:08:55.671Z,100
2017-06-18T09:09:36.370Z,50
2017-06-18T09:10:16.873Z,50
2017-06-18T09:10:57.335Z,95
2017-06-18T09:11:37.723Z,105
2017-06-18T09:12:18.163Z,100
2017-06-18T09:12:58.591Z,85
2017-06-18T09:13:39.007Z,80
2017-06-18T09:14:19.487Z,105
2017-06-18T09:14:59.915Z,105
2017-06-18T09:15:40.353Z,100
2017-06-18T09:16:21.126Z,105
2017-06-18T09:17:01.695Z,100
2017-06-18T09:17:42.236Z,105
2017-06-18T09:18:22.757Z,65
2017-06-18T09:19:03.209Z,100
2017-06-18T09:19:43.632Z,55
2017-06-18T09:20:24.127Z,45
2017-06-18T09:21:04.593Z,40
2017-06-18T09:21:45.019Z,40
2017-06-18T09:22:25.386Z,40
2017-06-18T09:23:05.802Z,40
2017-06-18T09:23:46.226Z,45
2017-06-18T09:24:26.659Z,45
2017-06-18T09:25:07.092Z,50
2017-06-18T09:25:47.555Z,100
2017-06-18T09:26:28.000Z,50
2017-06-18T09:27:08.449Z,45
2017-06-18T09:27:48.896Z,105
2017-06-18T09:28:29.309Z,105
2017-06-18T09:29:09.744Z,105
2017-06-18T09:29:50.180Z,105
2017-06-18T09:30:30.623Z,105
2017-06-18T09:31:11.077Z,105
2017-06-18T09:31:51.502Z,105
2017-06-18T09:32:31.952Z,100
2017-06-18T09:33:12.380Z,75
2017-06-18T09:33:52.839Z,50
2017-06-18T09:34:33.289Z,50
2017-06-18T09:35:13.743Z,100
2017-06-18T09:35:54.184Z,60
2017-06-18T09:36:34.627Z,60
2017-06-18T09:37:15.067Z,50
2017-06-18T09:37:55.504Z,45
2017-06-18T09:38:35.946Z,90
2017-06-18T09:39:16.401Z,80
2017-06-18T09:39:56.859Z,70
2017-06-18T09:40:37.291Z,115
2017-06-18T09:41:17.786Z,110
2017-06-18T09:41:58.230Z,50
2017-06-18T09:42:38.669Z,55
2017-06-18T09:43:19.138Z,50
2017-06-18T09:43:59.617Z,50
2017-06-18T09:44:40.039Z,60
2017-06-18T09:45:20.505Z,110
2017-06-18T09:46:00.958Z,85
2017-06-18T09:46:41.388Z,105
2017-06-18T09:47:21.844Z,105
2017-06-18T09:48:02.301Z,55
2017-06-18T09:48:42.744Z,105
2017-06-18T09:49:23.202Z,60
2017-06-18T09:50:03.656Z,105
2017-06-18T09:50:44.116Z,105
2017-06-18T09:53:17.165Z,45
2017-06-18T09:53:57.626Z,45
2017-06-18T09:54:38.083Z,110
2017-06-18T09:55:18.530Z,50
2017-06-18T09:55:58.976Z,45
2017-06-18T09:56:39.435Z,45
2017-06-18T09:57:19.894Z,105
2017-06-18T09:58:00.334Z,105
2017-06-18T09:58:40.785Z,105
2017-06-18T09:59:21.237Z,105
2017-06-18T10:00:01.696Z,105